PrinceSS Juana K — HPFV — position and weather

sailwx.info

Track history (hours):
 
Tides and Currents Weather Stations Pressure Air Temp Water Temp Dewpoint Dewpoint Depression Visibility Wind Speed Wind Dir Waves Ship Positions

PrinceSS Juana K

Last reported at 2014-Oct-29 15:33 UTC. Time now 2014-Oct-30 22:55 UTC.
Position N 37°53' E 024°31'.

Length 145 m; draft 5.2 m.

Type: Cargo ship. MMSI: 352982000.

Date/timePositionNaut miles runAvg speedWind from/ knotsBaromVisibWave heightAir tempDewpointWater temp
2014-Oct-29 15:33N 37°53' E 024°31'9 8.0
2014-Oct-29 14:25N 37°46' E 024°23'15 7.8
2014-Oct-29 12:34N 37°35' E 024°11'8 8.3
2014-Oct-29 11:33N 37°28' E 024°05'8 8.2
2014-Oct-29 10:32N 37°21' E 023°60'31 7.6
2014-Oct-29 06:29N 36°55' E 023°39'  
2014-Oct-21 18:32N 36°54' E 007°46'0 0.0
2014-Oct-21 17:31N 36°54' E 007°46'0 0.0
2014-Oct-21 15:18N 36°54' E 007°46'0 0.0
2014-Oct-21 14:32N 36°54' E 007°46'0 0.0
2014-Oct-21 13:21N 36°54' E 007°46'0 0.0
2014-Oct-21 12:33N 36°54' E 007°46'0 0.0
2014-Oct-21 11:13N 36°54' E 007°46'0 0.0
2014-Oct-21 10:31N 36°54' E 007°46'0 0.0
2014-Oct-21 09:33N 36°54' E 007°46'0 0.0
2014-Oct-21 08:34N 36°54' E 007°46'0 0.0
2014-Oct-21 07:32N 36°54' E 007°46'0 0.0
2014-Oct-21 06:23N 36°54' E 007°46'0 0.0
2014-Oct-21 05:33N 36°54' E 007°46'0 0.0
2014-Oct-21 04:33N 36°54' E 007°46'0 0.0
2014-Oct-21 03:32N 36°54' E 007°46'0 0.0
2014-Oct-21 02:32N 36°54' E 007°46'0 0.0
2014-Oct-20 23:26N 36°54' E 007°46'0 0.0
2014-Oct-20 12:29N 36°54' E 007°46'0 0.0
2014-Oct-20 05:31N 36°54' E 007°46'0 0.0
2014-Oct-20 04:32N 36°54' E 007°46'0 0.0
2014-Oct-20 00:26N 36°54' E 007°46'0 0.0
2014-Oct-19 23:11N 36°54' E 007°46'0 0.0
2014-Oct-19 21:31N 36°54' E 007°46'0 0.0
2014-Oct-19 20:28N 36°54' E 007°46'0 0.0
2014-Oct-19 19:33N 36°54' E 007°46'0 0.0
2014-Oct-19 18:32N 36°54' E 007°46'0 0.0
2014-Oct-19 17:08N 36°54' E 007°46'  
Track history (hours):
 
Tides and Currents Weather Stations Pressure Air Temp Water Temp Dewpoint Dewpoint Depression Visibility Wind Speed Wind Dir Waves Ship Positions

PrinceSS Juana K

Last reported at 2014-Oct-29 15:33 UTC. Time now 2014-Oct-30 22:55 UTC.
Position N 37°53' E 024°31'.

Length 145 m; draft 5.2 m.

Type: Cargo ship. MMSI: 352982000.

Date/timePositionNaut miles runAvg speedWind from/ knotsBaromVisibWave heightAir tempDewpointWater temp
2014-Oct-29 15:33N 37°53' E 024°31'9 8.0
2014-Oct-29 14:25N 37°46' E 024°23'15 7.8
2014-Oct-29 12:34N 37°35' E 024°11'8 8.3
2014-Oct-29 11:33N 37°28' E 024°05'8 8.2
2014-Oct-29 10:32N 37°21' E 023°60'31 7.6
2014-Oct-29 06:29N 36°55' E 023°39'  
2014-Oct-21 18:32N 36°54' E 007°46'0 0.0
2014-Oct-21 17:31N 36°54' E 007°46'0 0.0
2014-Oct-21 15:18N 36°54' E 007°46'0 0.0
2014-Oct-21 14:32N 36°54' E 007°46'0 0.0
2014-Oct-21 13:21N 36°54' E 007°46'0 0.0
2014-Oct-21 12:33N 36°54' E 007°46'0 0.0
2014-Oct-21 11:13N 36°54' E 007°46'0 0.0
2014-Oct-21 10:31N 36°54' E 007°46'0 0.0
2014-Oct-21 09:33N 36°54' E 007°46'0 0.0
2014-Oct-21 08:34N 36°54' E 007°46'0 0.0
2014-Oct-21 07:32N 36°54' E 007°46'0 0.0
2014-Oct-21 06:23N 36°54' E 007°46'0 0.0
2014-Oct-21 05:33N 36°54' E 007°46'0 0.0
2014-Oct-21 04:33N 36°54' E 007°46'0 0.0
2014-Oct-21 03:32N 36°54' E 007°46'0 0.0
2014-Oct-21 02:32N 36°54' E 007°46'0 0.0
2014-Oct-20 23:26N 36°54' E 007°46'0 0.0
2014-Oct-20 12:29N 36°54' E 007°46'0 0.0
2014-Oct-20 05:31N 36°54' E 007°46'0 0.0
2014-Oct-20 04:32N 36°54' E 007°46'0 0.0
2014-Oct-20 00:26N 36°54' E 007°46'0 0.0
2014-Oct-19 23:11N 36°54' E 007°46'0 0.0
2014-Oct-19 21:31N 36°54' E 007°46'0 0.0
2014-Oct-19 20:28N 36°54' E 007°46'0 0.0
2014-Oct-19 19:33N 36°54' E 007°46'0 0.0
2014-Oct-19 18:32N 36°54' E 007°46'0 0.0
2014-Oct-19 17:08N 36°54' E 007°46'  

Dump ship's entire track history